createdAt,value
2018-06-27T00:01:20.361Z,17.10
2018-06-27T00:04:02.488Z,17.00
2018-06-27T00:15:26.103Z,17.30
2018-06-27T00:20:55.920Z,16.40
2018-06-27T00:26:36.525Z,16.20
2018-06-27T00:31:52.204Z,16.70
2018-06-27T00:34:21.960Z,16.90
2018-06-27T00:36:51.618Z,16.70
2018-06-27T00:39:21.240Z,16.90
2018-06-27T00:41:51.171Z,16.80
2018-06-27T00:44:21.323Z,16.30
2018-06-27T00:46:51.188Z,16.60
2018-06-27T00:49:21.226Z,16.90
2018-06-27T00:51:51.008Z,17.10
2018-06-27T00:54:20.705Z,17.20
2018-06-27T00:56:50.406Z,16.90
2018-06-27T00:59:19.999Z,17.00
2018-06-27T01:01:49.709Z,16.90
2018-06-27T01:04:19.424Z,16.90
2018-06-27T01:06:49.063Z,16.70
2018-06-27T01:09:18.745Z,16.80
2018-06-27T01:11:48.534Z,16.50
2018-06-27T01:14:18.369Z,16.20
2018-06-27T01:16:48.371Z,16.60
2018-06-27T01:19:18.357Z,16.70
2018-06-27T01:21:49.234Z,16.80
2018-06-27T01:24:19.251Z,16.90
2018-06-27T01:26:48.964Z,17.00
2018-06-27T01:29:18.992Z,17.00
2018-06-27T01:31:49.289Z,16.60
2018-06-27T01:34:19.132Z,16.40
2018-06-27T01:36:49.012Z,16.60
2018-06-27T01:39:19.100Z,16.40
2018-06-27T01:41:49.129Z,16.70
2018-06-27T01:44:19.101Z,16.70
2018-06-27T01:46:49.193Z,16.80
2018-06-27T01:49:19.462Z,16.90
2018-06-27T01:51:49.157Z,16.80
2018-06-27T01:54:19.266Z,16.80
2018-06-27T01:56:49.233Z,16.70
2018-06-27T01:59:19.435Z,16.70
2018-06-27T02:01:49.153Z,16.50
2018-06-27T02:04:19.178Z,15.20
2018-06-27T02:06:48.849Z,14.40
2018-06-27T02:09:18.585Z,14.60
2018-06-27T02:11:48.282Z,15.10
2018-06-27T02:14:17.895Z,15.40
2018-06-27T02:16:47.656Z,15.60
2018-06-27T02:19:17.326Z,15.70
2018-06-27T02:21:47.065Z,15.80
2018-06-27T02:24:16.808Z,15.90
2018-06-27T02:26:46.505Z,15.90
2018-06-27T02:29:16.212Z,15.00
2018-06-27T02:31:45.936Z,14.50
2018-06-27T02:34:15.934Z,14.30
2018-06-27T02:36:45.592Z,14.40
2018-06-27T02:39:15.340Z,14.30
2018-06-27T02:41:44.979Z,14.70
2018-06-27T02:44:14.608Z,15.00
2018-06-27T02:46:44.312Z,15.00
2018-06-27T02:49:14.001Z,14.80
2018-06-27T02:51:43.668Z,15.20
2018-06-27T02:54:13.397Z,15.10
2018-06-27T02:56:43.103Z,15.60
2018-06-27T02:59:13.233Z,15.90
2018-06-27T03:01:43.040Z,16.10
2018-06-27T03:04:13.020Z,16.20
2018-06-27T03:06:42.840Z,16.00
2018-06-27T03:09:12.617Z,16.00
2018-06-27T03:11:42.311Z,16.10
2018-06-27T03:14:12.015Z,16.20
2018-06-27T03:16:41.732Z,16.00
2018-06-27T03:19:11.376Z,16.10
2018-06-27T03:21:44.928Z,15.90
2018-06-27T03:24:14.619Z,16.10
2018-06-27T03:26:44.255Z,16.20
2018-06-27T03:29:13.908Z,16.20
2018-06-27T03:31:43.596Z,15.90
2018-06-27T03:34:13.155Z,15.60
2018-06-27T03:36:43.036Z,15.60
2018-06-27T03:39:12.692Z,15.20
2018-06-27T03:41:42.559Z,15.60
2018-06-27T03:44:12.248Z,15.70
2018-06-27T03:46:42.101Z,15.70
2018-06-27T03:49:15.668Z,16.00
2018-06-27T03:51:45.269Z,16.00
2018-06-27T03:54:14.952Z,16.00
2018-06-27T03:56:44.688Z,15.80
2018-06-27T03:59:14.333Z,16.00
2018-06-27T04:01:44.147Z,15.60
2018-06-27T04:04:13.779Z,15.40
2018-06-27T04:06:43.396Z,15.20
2018-06-27T04:09:13.304Z,15.30
2018-06-27T04:11:43.161Z,15.30
2018-06-27T04:14:12.760Z,15.80
2018-06-27T04:16:42.380Z,16.20
2018-06-27T04:19:12.040Z,16.20
2018-06-27T04:21:41.840Z,16.60
2018-06-27T04:24:11.553Z,16.40
2018-06-27T04:26:41.317Z,16.30
2018-06-27T04:29:10.997Z,16.40
2018-06-27T04:31:40.595Z,16.80
2018-06-27T04:34:10.251Z,16.90
2018-06-27T04:36:39.882Z,17.30
2018-06-27T04:39:10.879Z,17.50
2018-06-27T04:41:40.907Z,17.30
2018-06-27T04:44:10.765Z,17.50
2018-06-27T04:46:40.409Z,17.20
2018-06-27T04:49:10.294Z,16.70
2018-06-27T04:51:41.176Z,17.10
2018-06-27T04:54:10.837Z,17.50
2018-06-27T04:56:40.496Z,17.30
2018-06-27T04:59:10.269Z,17.50
2018-06-27T05:01:41.739Z,17.70
2018-06-27T05:04:13.135Z,17.90
2018-06-27T05:06:44.096Z,18.20
2018-06-27T05:09:17.281Z,18.40
2018-06-27T05:11:47.058Z,18.30
2018-06-27T05:14:22.049Z,18.10
2018-06-27T05:16:52.330Z,18.20
2018-06-27T05:19:25.162Z,18.20
2018-06-27T05:21:55.340Z,17.90
2018-06-27T05:24:26.219Z,17.80
2018-06-27T05:26:56.672Z,17.80
2018-06-27T05:29:26.948Z,17.30
2018-06-27T05:31:57.196Z,17.30
2018-06-27T05:34:29.447Z,17.80
2018-06-27T05:37:02.176Z,18.30
2018-06-27T05:39:33.951Z,18.20
2018-06-27T05:42:04.864Z,18.40
2018-06-27T05:44:36.283Z,18.40
2018-06-27T05:47:06.193Z,18.60
2018-06-27T05:49:35.856Z,18.70
2018-06-27T05:52:06.403Z,18.90
2018-06-27T05:54:37.472Z,18.90
2018-06-27T05:57:08.353Z,19.10
2018-06-27T05:59:38.945Z,18.40
2018-06-27T06:02:08.611Z,17.80
2018-06-27T06:04:40.573Z,18.00
2018-06-27T06:07:13.006Z,18.50
2018-06-27T06:09:44.172Z,18.80
2018-06-27T06:12:13.761Z,18.30
2018-06-27T06:14:45.645Z,18.70
2018-06-27T06:17:15.312Z,18.80
2018-06-27T06:19:44.927Z,19.00
2018-06-27T06:22:14.555Z,19.30
2018-06-27T06:24:45.279Z,19.50
2018-06-27T06:27:15.647Z,19.90
2018-06-27T06:29:45.951Z,19.90
2018-06-27T06:32:15.995Z,20.10
2018-06-27T06:34:45.668Z,19.70
2018-06-27T06:37:15.434Z,19.80
2018-06-27T06:39:45.034Z,19.60
2018-06-27T06:42:15.008Z,19.00
2018-06-27T06:44:44.852Z,18.60
2018-06-27T06:47:14.619Z,19.30
2018-06-27T06:49:44.353Z,19.10
2018-06-27T06:52:14.046Z,19.40
2018-06-27T06:54:43.798Z,19.50
2018-06-27T06:57:13.487Z,19.50
2018-06-27T06:59:44.188Z,19.00
2018-06-27T07:02:13.943Z,19.00
2018-06-27T07:04:43.785Z,19.30
2018-06-27T07:07:13.467Z,19.30
2018-06-27T07:09:43.125Z,20.10
2018-06-27T07:12:13.377Z,20.30
2018-06-27T07:14:43.463Z,20.60
2018-06-27T07:17:13.461Z,20.60
2018-06-27T07:19:43.320Z,21.00
2018-06-27T07:22:13.412Z,21.00
2018-06-27T07:24:44.328Z,20.70
2018-06-27T07:27:13.945Z,20.70
2018-06-27T07:29:50.326Z,20.40
2018-06-27T07:32:19.943Z,21.00
2018-06-27T07:34:49.646Z,21.00
2018-06-27T07:37:19.476Z,21.30
2018-06-27T07:39:49.133Z,21.00
2018-06-27T07:42:18.744Z,21.30
2018-06-27T07:44:48.346Z,21.40
2018-06-27T07:47:17.925Z,21.40
2018-06-27T07:49:47.887Z,21.00
2018-06-27T07:52:17.497Z,20.60
2018-06-27T07:54:47.114Z,20.10
2018-06-27T07:57:16.757Z,20.50
2018-06-27T07:59:47.230Z,20.40
2018-06-27T08:02:16.936Z,20.30
2018-06-27T08:04:46.604Z,20.00
2018-06-27T08:07:16.300Z,19.90
2018-06-27T08:09:45.965Z,19.60
2018-06-27T08:12:15.814Z,19.50
2018-06-27T08:17:21.951Z,19.40
2018-06-27T08:19:51.580Z,19.70
2018-06-27T08:22:21.430Z,20.20
2018-06-27T08:24:51.166Z,20.60
2018-06-27T08:27:20.943Z,21.20
2018-06-27T08:29:50.604Z,21.30
2018-06-27T08:34:54.974Z,21.10
2018-06-27T08:37:24.606Z,21.40
2018-06-27T08:39:54.276Z,21.20
2018-06-27T08:44:59.317Z,21.10
2018-06-27T08:47:29.166Z,21.10
2018-06-27T08:49:58.923Z,21.00
2018-06-27T08:52:34.740Z,21.30
2018-06-27T08:55:04.516Z,21.80
2018-06-27T08:57:34.290Z,21.90
2018-06-27T09:00:05.091Z,21.60
2018-06-27T09:02:34.806Z,21.90
2018-06-27T09:05:10.801Z,21.90
2018-06-27T09:07:40.630Z,21.80
2018-06-27T09:10:10.317Z,21.20
2018-06-27T09:12:40.105Z,21.90
2018-06-27T09:15:09.784Z,21.70
2018-06-27T09:17:39.357Z,21.30
2018-06-27T09:20:08.954Z,21.30
2018-06-27T09:22:38.505Z,21.30
2018-06-27T09:25:08.108Z,20.90
2018-06-27T09:27:38.716Z,21.00
2018-06-27T09:30:08.346Z,20.90
2018-06-27T09:32:37.944Z,20.60
2018-06-27T09:35:07.821Z,20.80
2018-06-27T09:37:37.392Z,20.80
2018-06-27T09:40:06.980Z,21.40
2018-06-27T09:42:36.571Z,21.70
2018-06-27T09:45:06.196Z,21.80
2018-06-27T09:47:37.391Z,21.30
2018-06-27T09:50:07.193Z,21.10
2018-06-27T09:52:36.920Z,20.90
2018-06-27T09:55:06.523Z,20.80
2018-06-27T09:57:36.215Z,20.90
2018-06-27T10:00:06.032Z,21.30
2018-06-27T10:02:35.800Z,20.80
2018-06-27T10:05:05.537Z,20.50
2018-06-27T10:07:35.254Z,20.70
2018-06-27T10:10:04.845Z,21.30
2018-06-27T10:12:34.542Z,21.70
2018-06-27T10:15:04.209Z,21.60
2018-06-27T10:17:33.885Z,21.40
2018-06-27T10:20:03.554Z,21.20
2018-06-27T10:22:33.560Z,21.00
2018-06-27T10:25:03.228Z,20.60
2018-06-27T10:27:32.800Z,20.70
2018-06-27T10:30:02.411Z,20.80
2018-06-27T10:32:32.044Z,20.80
2018-06-27T10:35:01.965Z,20.90
2018-06-27T10:37:31.584Z,21.50
2018-06-27T10:40:01.267Z,22.20
2018-06-27T10:47:41.336Z,21.90
2018-06-27T10:50:11.004Z,21.60
2018-06-27T10:52:40.681Z,21.60
2018-06-27T10:55:15.723Z,21.30
2018-06-27T10:57:45.452Z,21.40
2018-06-27T11:00:15.136Z,21.70
2018-06-27T11:02:44.797Z,21.60
2018-06-27T11:05:14.498Z,21.60
2018-06-27T11:07:44.211Z,21.30
2018-06-27T11:10:13.952Z,21.00
2018-06-27T11:12:43.848Z,20.80
2018-06-27T11:15:14.078Z,21.00
2018-06-27T11:17:44.304Z,20.90
2018-06-27T11:20:14.260Z,21.00
2018-06-27T11:22:43.855Z,21.10
2018-06-27T11:25:13.669Z,21.20
2018-06-27T11:27:43.334Z,21.50
2018-06-27T11:30:13.554Z,21.60
2018-06-27T11:32:43.834Z,21.90
2018-06-27T11:35:13.541Z,21.70
2018-06-27T11:37:44.045Z,22.10
2018-06-27T11:40:13.727Z,22.00
2018-06-27T11:42:43.429Z,22.20
2018-06-27T11:45:13.211Z,22.10
2018-06-27T11:47:42.832Z,22.10
2018-06-27T11:50:12.579Z,22.00
2018-06-27T11:52:42.269Z,21.80
2018-06-27T11:55:12.464Z,22.10
2018-06-27T11:57:43.450Z,22.00
2018-06-27T12:00:13.072Z,21.90
2018-06-27T12:02:42.702Z,21.90
2018-06-27T12:05:12.372Z,22.00
2018-06-27T12:07:42.925Z,21.60
2018-06-27T12:10:14.753Z,21.70
2018-06-27T12:12:45.449Z,21.70
2018-06-27T12:15:15.720Z,22.00
2018-06-27T12:17:45.936Z,22.10
2018-06-27T12:20:16.355Z,22.10
2018-06-27T12:22:47.066Z,22.20
2018-06-27T12:25:16.705Z,22.50
2018-06-27T12:27:46.565Z,22.40
2018-06-27T12:30:21.996Z,22.40
2018-06-27T12:32:52.175Z,22.50
2018-06-27T12:35:23.376Z,22.60
2018-06-27T12:37:53.172Z,22.50
2018-06-27T12:40:22.810Z,22.60
2018-06-27T12:42:52.488Z,23.10
2018-06-27T12:45:22.095Z,23.30
2018-06-27T12:47:52.467Z,23.70
2018-06-27T12:50:22.190Z,23.80
2018-06-27T12:52:51.844Z,24.10
2018-06-27T12:55:21.440Z,24.10
2018-06-27T12:57:51.068Z,23.70
2018-06-27T13:00:20.717Z,24.20
2018-06-27T13:02:50.405Z,24.40
2018-06-27T13:05:20.023Z,24.50
2018-06-27T13:07:50.040Z,24.50
2018-06-27T13:10:19.698Z,24.30
2018-06-27T13:12:49.765Z,24.80
2018-06-27T13:15:19.905Z,25.20
2018-06-27T13:17:50.134Z,25.00
2018-06-27T13:20:21.042Z,25.10
2018-06-27T13:22:51.868Z,25.60
2018-06-27T13:25:22.170Z,25.20
2018-06-27T13:27:51.961Z,24.30
2018-06-27T13:30:22.652Z,24.10
2018-06-27T13:32:52.476Z,23.80
2018-06-27T13:35:22.098Z,23.60
2018-06-27T13:37:51.745Z,23.30
2018-06-27T13:40:21.310Z,23.40
2018-06-27T13:42:50.916Z,23.30
2018-06-27T13:45:20.502Z,23.00
2018-06-27T13:47:50.152Z,22.80
2018-06-27T13:50:19.924Z,23.30
2018-06-27T13:52:49.568Z,23.50
2018-06-27T13:55:19.257Z,23.90
2018-06-27T13:57:48.938Z,24.00
2018-06-27T14:00:19.937Z,24.10
2018-06-27T14:02:49.643Z,24.10
2018-06-27T14:05:19.793Z,24.60
2018-06-27T14:07:50.030Z,25.00
2018-06-27T14:10:19.666Z,25.00
2018-06-27T14:12:52.296Z,25.30
2018-06-27T14:15:21.941Z,25.10
2018-06-27T14:17:51.871Z,24.70
2018-06-27T14:20:23.016Z,24.40
2018-06-27T14:22:52.691Z,24.10
2018-06-27T14:25:22.379Z,23.70
2018-06-27T14:27:52.635Z,23.80
2018-06-27T14:30:22.601Z,23.70
2018-06-27T14:32:52.318Z,23.60
2018-06-27T14:35:21.959Z,23.80
2018-06-27T14:37:52.186Z,23.90
2018-06-27T14:40:22.950Z,23.40
2018-06-27T14:42:52.660Z,23.20
2018-06-27T14:45:22.296Z,23.50
2018-06-27T14:47:52.131Z,23.90
2018-06-27T14:50:22.016Z,24.10
2018-06-27T14:52:52.348Z,24.30
2018-06-27T14:55:22.050Z,25.00
2018-06-27T14:57:51.656Z,25.30
2018-06-27T15:00:21.318Z,25.70
2018-06-27T15:02:50.924Z,25.80
2018-06-27T15:05:20.506Z,25.30
2018-06-27T15:07:50.145Z,24.80
2018-06-27T15:10:19.800Z,24.90
2018-06-27T15:12:49.473Z,24.50
2018-06-27T15:15:19.065Z,24.20
2018-06-27T15:17:48.891Z,24.30
2018-06-27T15:20:18.600Z,24.00
2018-06-27T15:22:48.361Z,24.00
2018-06-27T15:25:17.972Z,23.80
2018-06-27T15:27:47.658Z,23.40
2018-06-27T15:30:17.326Z,23.40
2018-06-27T15:32:46.916Z,23.00
2018-06-27T15:35:16.658Z,22.20
2018-06-27T15:37:46.248Z,22.30
2018-06-27T15:40:15.942Z,22.30
2018-06-27T15:42:45.538Z,22.00
2018-06-27T15:45:15.186Z,22.00
2018-06-27T15:47:44.845Z,22.00
2018-06-27T15:50:21.407Z,22.30
2018-06-27T15:52:51.138Z,22.30
2018-06-27T15:55:21.028Z,22.20
2018-06-27T15:57:50.853Z,22.40
2018-06-27T16:00:20.505Z,22.60
2018-06-27T16:02:51.959Z,22.60
2018-06-27T16:05:21.713Z,23.00
2018-06-27T16:07:51.368Z,22.90
2018-06-27T16:10:21.072Z,23.00
2018-06-27T16:12:50.747Z,22.80
2018-06-27T16:15:20.341Z,22.80
2018-06-27T16:17:49.975Z,22.60
2018-06-27T16:20:19.652Z,22.50
2018-06-27T16:22:49.409Z,22.80
2018-06-27T16:25:19.116Z,22.50
2018-06-27T16:27:48.752Z,22.30
2018-06-27T16:30:18.489Z,22.30
2018-06-27T16:32:48.798Z,22.30
2018-06-27T16:35:19.417Z,22.20
2018-06-27T16:37:49.164Z,22.20
2018-06-27T16:40:18.871Z,22.40
2018-06-27T16:42:48.860Z,22.30
2018-06-27T16:45:18.518Z,21.90
2018-06-27T16:47:48.152Z,22.10
2018-06-27T16:50:17.821Z,21.90
2018-06-27T16:52:48.547Z,21.60
2018-06-27T16:55:18.127Z,21.80
2018-06-27T16:57:47.792Z,21.90
2018-06-27T17:00:17.456Z,21.90
2018-06-27T17:02:47.051Z,21.90
2018-06-27T17:05:16.690Z,21.90
2018-06-27T17:07:46.352Z,22.00
2018-06-27T17:10:15.925Z,21.80
2018-06-27T17:12:46.833Z,22.20
2018-06-27T17:15:16.376Z,22.30
2018-06-27T17:17:46.124Z,22.20
2018-06-27T17:20:15.844Z,22.20
2018-06-27T17:22:46.291Z,22.30
2018-06-27T17:25:15.909Z,22.20
2018-06-27T17:27:45.514Z,22.10
2018-06-27T17:30:15.583Z,22.20
2018-06-27T17:32:46.018Z,22.40
2018-06-27T17:35:15.712Z,22.60
2018-06-27T17:37:46.242Z,21.70
2018-06-27T17:40:16.521Z,21.80
2018-06-27T17:42:46.322Z,22.30
2018-06-27T17:45:16.044Z,21.60
2018-06-27T17:47:45.760Z,22.00
2018-06-27T17:53:07.142Z,22.20
2018-06-27T17:55:36.811Z,22.20
2018-06-27T17:58:06.373Z,21.90
2018-06-27T18:00:35.977Z,21.60
2018-06-27T18:03:05.839Z,22.00
2018-06-27T18:05:35.509Z,21.90
2018-06-27T18:08:05.547Z,22.20
2018-06-27T18:10:35.440Z,22.30
2018-06-27T18:13:05.114Z,22.20
2018-06-27T18:15:36.603Z,22.10
2018-06-27T18:18:06.570Z,22.00
2018-06-27T18:20:37.780Z,21.00
2018-06-27T18:23:08.215Z,21.00
2018-06-27T18:25:38.700Z,21.00
2018-06-27T18:28:12.036Z,21.30
2018-06-27T18:30:41.872Z,21.30
2018-06-27T18:33:11.519Z,20.90
2018-06-27T18:35:41.171Z,20.90
2018-06-27T18:38:12.374Z,20.80
2018-06-27T18:40:49.722Z,21.10
2018-06-27T18:43:21.293Z,21.10
2018-06-27T18:45:53.317Z,21.30
2018-06-27T18:48:22.951Z,21.30
2018-06-27T18:50:54.509Z,21.40
2018-06-27T18:53:24.126Z,21.50
2018-06-27T18:55:55.232Z,21.60
2018-06-27T18:58:25.265Z,21.40
2018-06-27T19:00:56.272Z,21.20
2018-06-27T19:03:28.285Z,21.10
2018-06-27T19:05:59.912Z,21.00
2018-06-27T19:08:30.050Z,21.00
2018-06-27T19:11:01.962Z,21.10
2018-06-27T19:13:32.429Z,21.20
2018-06-27T19:16:02.193Z,21.30
2018-06-27T19:18:31.830Z,21.30
2018-06-27T19:21:05.444Z,20.90
2018-06-27T19:23:35.703Z,20.80
2018-06-27T19:26:07.610Z,21.00
2018-06-27T19:28:39.024Z,21.10
2018-06-27T19:31:10.033Z,20.50
2018-06-27T19:33:41.122Z,20.30
2018-06-27T19:36:12.754Z,20.60
2018-06-27T19:38:43.804Z,20.40
2018-06-27T19:43:52.914Z,20.80
2018-06-27T19:46:23.395Z,20.90
2018-06-27T19:48:59.279Z,21.00
2018-06-27T19:51:30.265Z,21.20
2018-06-27T19:56:43.303Z,21.20
2018-06-27T19:59:13.752Z,21.10
2018-06-27T20:01:44.858Z,20.90
2018-06-27T20:04:15.048Z,21.00
2018-06-27T20:06:44.681Z,21.00
2018-06-27T20:09:14.422Z,21.20
2018-06-27T20:11:44.647Z,21.30
2018-06-27T20:14:15.830Z,20.90
2018-06-27T20:16:45.699Z,20.80
2018-06-27T20:19:15.481Z,20.70
2018-06-27T20:21:45.901Z,20.60
2018-06-27T20:24:15.547Z,20.60
2018-06-27T20:26:46.870Z,20.60
2018-06-27T20:29:16.577Z,20.60
2018-06-27T20:31:46.236Z,20.20
2018-06-27T20:34:15.883Z,20.00
2018-06-27T20:36:45.583Z,20.10
2018-06-27T20:39:15.229Z,19.90
2018-06-27T20:41:44.992Z,19.80
2018-06-27T20:44:14.652Z,19.80
2018-06-27T20:46:44.361Z,20.10
2018-06-27T20:49:14.166Z,20.10
2018-06-27T20:51:43.994Z,19.50
2018-06-27T20:54:12.596Z,19.30
2018-06-27T20:56:42.952Z,19.40
2018-06-27T20:59:13.223Z,19.30
2018-06-27T21:01:43.209Z,19.80
2018-06-27T21:04:12.917Z,19.60
2018-06-27T21:06:43.105Z,19.50
2018-06-27T21:09:12.854Z,19.60
2018-06-27T21:11:43.102Z,19.30
2018-06-27T21:14:21.011Z,19.30
2018-06-27T21:16:53.047Z,19.40
2018-06-27T21:19:22.673Z,19.50
2018-06-27T21:21:52.261Z,19.10
2018-06-27T21:24:22.027Z,19.20
2018-06-27T21:26:51.780Z,19.20
2018-06-27T21:29:21.413Z,19.10
2018-06-27T21:31:51.084Z,19.00
2018-06-27T21:34:20.720Z,19.00
2018-06-27T21:36:50.733Z,19.20
2018-06-27T21:39:20.377Z,19.40
2018-06-27T21:41:50.014Z,19.30
2018-06-27T21:44:19.671Z,19.30
2018-06-27T21:46:49.327Z,19.00
2018-06-27T21:49:18.908Z,18.80
2018-06-27T21:51:48.508Z,18.80
2018-06-27T21:54:18.233Z,18.70
2018-06-27T21:56:48.100Z,18.90
2018-06-27T21:59:17.764Z,18.70
2018-06-27T22:01:47.337Z,18.10
2018-06-27T22:04:17.019Z,17.70
2018-06-27T22:06:46.594Z,17.70
2018-06-27T22:09:16.586Z,17.80
2018-06-27T22:11:46.175Z,18.10
2018-06-27T22:14:15.854Z,18.30
2018-06-27T22:16:45.554Z,18.00
2018-06-27T22:19:15.160Z,17.90
2018-06-27T22:21:44.892Z,18.00
2018-06-27T22:24:16.118Z,18.00
2018-06-27T22:26:45.784Z,17.70
2018-06-27T22:29:15.449Z,17.70
2018-06-27T22:31:45.904Z,17.80
2018-06-27T22:34:19.094Z,17.60
2018-06-27T22:36:48.816Z,17.80
2018-06-27T22:39:18.433Z,17.90
2018-06-27T22:41:48.093Z,18.00
2018-06-27T22:44:17.735Z,17.40
2018-06-27T22:46:54.179Z,17.50
2018-06-27T22:49:24.324Z,17.30
2018-06-27T22:51:54.120Z,17.60
2018-06-27T22:54:23.733Z,17.60
2018-06-27T22:56:53.383Z,17.50
2018-06-27T22:59:23.021Z,17.40
2018-06-27T23:01:52.681Z,17.40
2018-06-27T23:04:22.380Z,16.90
2018-06-27T23:06:52.083Z,16.80
2018-06-27T23:09:21.779Z,16.40
2018-06-27T23:11:51.468Z,16.80
2018-06-27T23:14:21.103Z,16.90
2018-06-27T23:16:50.787Z,17.10
2018-06-27T23:19:20.447Z,17.20
2018-06-27T23:21:50.107Z,17.30
2018-06-27T23:24:20.376Z,17.20
2018-06-27T23:26:50.995Z,16.70
2018-06-27T23:29:20.599Z,16.40
2018-06-27T23:31:51.492Z,16.20
2018-06-27T23:34:22.173Z,16.50
2018-06-27T23:36:53.108Z,16.70
2018-06-27T23:39:22.720Z,16.90
2018-06-27T23:41:52.922Z,17.00
2018-06-27T23:44:22.556Z,17.00
2018-06-27T23:46:53.089Z,16.80
2018-06-27T23:49:22.665Z,16.70
2018-06-27T23:51:53.148Z,16.50
2018-06-27T23:54:23.473Z,16.70
2018-06-27T23:56:53.080Z,16.60
2018-06-27T23:59:24.404Z,15.70
